sensor_id;sensor_type;location;lat;lon;timestamp;P1;durP1;ratioP1;P2;durP2;ratioP2
7029;SDS011;3556;53.500;10.176;2023-04-03T00:01:12;8.03;;;2.30;;
7029;SDS011;3556;53.500;10.176;2023-04-03T00:03:37;12.70;;;2.50;;
7029;SDS011;3556;53.500;10.176;2023-04-03T00:06:03;5.20;;;2.13;;
7029;SDS011;3556;53.500;10.176;2023-04-03T00:08:32;6.93;;;2.37;;
7029;SDS011;3556;53.500;10.176;2023-04-03T00:10:57;8.37;;;2.40;;
7029;SDS011;3556;53.500;10.176;2023-04-03T00:13:23;5.77;;;2.20;;
7029;SDS011;3556;53.500;10.176;2023-04-03T00:15:50;8.57;;;2.10;;
7029;SDS011;3556;53.500;10.176;2023-04-03T00:18:16;8.83;;;2.53;;
7029;SDS011;3556;53.500;10.176;2023-04-03T00:20:42;9.00;;;2.53;;
7029;SDS011;3556;53.500;10.176;2023-04-03T00:23:08;8.93;;;2.90;;
7029;SDS011;3556;53.500;10.176;2023-04-03T00:25:34;6.30;;;2.60;;
7029;SDS011;3556;53.500;10.176;2023-04-03T00:28:00;5.77;;;3.03;;
7029;SDS011;3556;53.500;10.176;2023-04-03T00:30:26;11.70;;;3.10;;
7029;SDS011;3556;53.500;10.176;2023-04-03T00:32:51;6.90;;;2.27;;
7029;SDS011;3556;53.500;10.176;2023-04-03T00:35:18;12.30;;;2.87;;
7029;SDS011;3556;53.500;10.176;2023-04-03T00:37:45;3.97;;;3.67;;
7029;SDS011;3556;53.500;10.176;2023-04-03T00:40:12;10.30;;;2.97;;
7029;SDS011;3556;53.500;10.176;2023-04-03T00:42:43;5.30;;;2.60;;
7029;SDS011;3556;53.500;10.176;2023-04-03T00:47:43;5.47;;;2.30;;
7029;SDS011;3556;53.500;10.176;2023-04-03T00:50:09;5.83;;;2.37;;
7029;SDS011;3556;53.500;10.176;2023-04-03T00:52:35;10.47;;;3.07;;
7029;SDS011;3556;53.500;10.176;2023-04-03T00:55:03;4.43;;;1.93;;
7029;SDS011;3556;53.500;10.176;2023-04-03T00:57:32;7.03;;;2.57;;
7029;SDS011;3556;53.500;10.176;2023-04-03T01:00:04;2.33;;;2.13;;
7029;SDS011;3556;53.500;10.176;2023-04-03T01:02:33;4.60;;;2.33;;
7029;SDS011;3556;53.500;10.176;2023-04-03T01:04:59;5.40;;;2.37;;
7029;SDS011;3556;53.500;10.176;2023-04-03T01:07:29;5.90;;;2.03;;
7029;SDS011;3556;53.500;10.176;2023-04-03T01:09:57;3.40;;;2.30;;
7029;SDS011;3556;53.500;10.176;2023-04-03T01:12:25;3.60;;;2.10;;
7029;SDS011;3556;53.500;10.176;2023-04-03T01:14:53;9.17;;;3.13;;
7029;SDS011;3556;53.500;10.176;2023-04-03T01:25:24;8.67;;;1.93;;
7029;SDS011;3556;53.500;10.176;2023-04-03T01:27:51;3.13;;;2.10;;
7029;SDS011;3556;53.500;10.176;2023-04-03T01:30:17;3.90;;;2.00;;
7029;SDS011;3556;53.500;10.176;2023-04-03T01:32:45;5.07;;;2.40;;
7029;SDS011;3556;53.500;10.176;2023-04-03T01:35:10;6.40;;;2.43;;
7029;SDS011;3556;53.500;10.176;2023-04-03T01:37:36;5.83;;;2.77;;
7029;SDS011;3556;53.500;10.176;2023-04-03T01:40:03;5.57;;;2.17;;
7029;SDS011;3556;53.500;10.176;2023-04-03T01:42:29;6.53;;;2.57;;
7029;SDS011;3556;53.500;10.176;2023-04-03T01:44:54;3.70;;;2.30;;
7029;SDS011;3556;53.500;10.176;2023-04-03T01:47:21;6.13;;;2.67;;
7029;SDS011;3556;53.500;10.176;2023-04-03T01:49:47;5.83;;;2.87;;
7029;SDS011;3556;53.500;10.176;2023-04-03T01:52:12;5.30;;;2.37;;
7029;SDS011;3556;53.500;10.176;2023-04-03T01:54:38;4.30;;;2.33;;
7029;SDS011;3556;53.500;10.176;2023-04-03T01:57:03;11.10;;;2.77;;
7029;SDS011;3556;53.500;10.176;2023-04-03T01:59:29;3.47;;;2.00;;
7029;SDS011;3556;53.500;10.176;2023-04-03T02:01:55;5.83;;;2.30;;
7029;SDS011;3556;53.500;10.176;2023-04-03T02:04:21;7.23;;;2.70;;
7029;SDS011;3556;53.500;10.176;2023-04-03T02:06:47;12.53;;;2.40;;
7029;SDS011;3556;53.500;10.176;2023-04-03T02:09:12;5.33;;;2.30;;
7029;SDS011;3556;53.500;10.176;2023-04-03T02:11:38;6.40;;;2.40;;
7029;SDS011;3556;53.500;10.176;2023-04-03T02:14:03;8.70;;;2.17;;
7029;SDS011;3556;53.500;10.176;2023-04-03T02:16:29;3.33;;;2.40;;
7029;SDS011;3556;53.500;10.176;2023-04-03T02:18:55;7.90;;;2.23;;
7029;SDS011;3556;53.500;10.176;2023-04-03T02:21:21;3.77;;;2.47;;
7029;SDS011;3556;53.500;10.176;2023-04-03T02:23:47;4.60;;;2.37;;
7029;SDS011;3556;53.500;10.176;2023-04-03T02:26:13;11.13;;;2.60;;
7029;SDS011;3556;53.500;10.176;2023-04-03T02:28:40;8.70;;;2.70;;
7029;SDS011;3556;53.500;10.176;2023-04-03T02:31:06;3.83;;;2.20;;
7029;SDS011;3556;53.500;10.176;2023-04-03T02:33:33;4.53;;;1.77;;
7029;SDS011;3556;53.500;10.176;2023-04-03T02:36:00;5.43;;;2.53;;
7029;SDS011;3556;53.500;10.176;2023-04-03T02:38:26;7.70;;;2.00;;
7029;SDS011;3556;53.500;10.176;2023-04-03T02:40:52;6.50;;;1.97;;
7029;SDS011;3556;53.500;10.176;2023-04-03T02:43:17;7.07;;;2.03;;
7029;SDS011;3556;53.500;10.176;2023-04-03T02:45:43;4.00;;;2.30;;
7029;SDS011;3556;53.500;10.176;2023-04-03T02:48:09;6.90;;;2.30;;
7029;SDS011;3556;53.500;10.176;2023-04-03T02:50:34;4.03;;;1.93;;
7029;SDS011;3556;53.500;10.176;2023-04-03T02:53:00;6.33;;;2.00;;
7029;SDS011;3556;53.500;10.176;2023-04-03T02:55:26;4.73;;;1.90;;
7029;SDS011;3556;53.500;10.176;2023-04-03T02:57:51;18.13;;;2.50;;
7029;SDS011;3556;53.500;10.176;2023-04-03T03:00:17;4.97;;;2.13;;
7029;SDS011;3556;53.500;10.176;2023-04-03T03:02:43;4.70;;;2.37;;
7029;SDS011;3556;53.500;10.176;2023-04-03T03:05:08;8.47;;;1.90;;
7029;SDS011;3556;53.500;10.176;2023-04-03T03:07:34;2.23;;;2.10;;
7029;SDS011;3556;53.500;10.176;2023-04-03T03:10:00;4.67;;;2.00;;
7029;SDS011;3556;53.500;10.176;2023-04-03T03:12:25;2.17;;;1.97;;
7029;SDS011;3556;53.500;10.176;2023-04-03T03:14:51;10.70;;;2.17;;
7029;SDS011;3556;53.500;10.176;2023-04-03T03:17:17;5.63;;;1.90;;
7029;SDS011;3556;53.500;10.176;2023-04-03T03:19:43;2.30;;;1.67;;
7029;SDS011;3556;53.500;10.176;2023-04-03T03:22:10;2.13;;;1.90;;
7029;SDS011;3556;53.500;10.176;2023-04-03T03:24:36;6.43;;;2.00;;
7029;SDS011;3556;53.500;10.176;2023-04-03T03:27:01;3.70;;;1.80;;
7029;SDS011;3556;53.500;10.176;2023-04-03T03:29:27;4.53;;;1.57;;
7029;SDS011;3556;53.500;10.176;2023-04-03T03:31:52;3.10;;;1.80;;
7029;SDS011;3556;53.500;10.176;2023-04-03T03:34:18;4.50;;;2.10;;
7029;SDS011;3556;53.500;10.176;2023-04-03T03:36:44;8.63;;;2.07;;
7029;SDS011;3556;53.500;10.176;2023-04-03T03:39:09;8.70;;;1.73;;
7029;SDS011;3556;53.500;10.176;2023-04-03T03:41:35;4.73;;;2.17;;
7029;SDS011;3556;53.500;10.176;2023-04-03T03:44:00;14.47;;;2.53;;
7029;SDS011;3556;53.500;10.176;2023-04-03T03:46:26;4.33;;;2.13;;
7029;SDS011;3556;53.500;10.176;2023-04-03T03:48:52;2.30;;;2.10;;
7029;SDS011;3556;53.500;10.176;2023-04-03T03:51:17;3.83;;;1.90;;
7029;SDS011;3556;53.500;10.176;2023-04-03T03:53:43;3.23;;;1.90;;
7029;SDS011;3556;53.500;10.176;2023-04-03T03:56:08;9.80;;;2.47;;
7029;SDS011;3556;53.500;10.176;2023-04-03T03:58:34;2.97;;;1.83;;
7029;SDS011;3556;53.500;10.176;2023-04-03T04:01:01;1.90;;;1.70;;
7029;SDS011;3556;53.500;10.176;2023-04-03T04:03:28;8.53;;;2.77;;
7029;SDS011;3556;53.500;10.176;2023-04-03T04:05:54;4.43;;;1.80;;
7029;SDS011;3556;53.500;10.176;2023-04-03T04:08:20;13.90;;;1.97;;
7029;SDS011;3556;53.500;10.176;2023-04-03T04:10:46;9.77;;;2.50;;
7029;SDS011;3556;53.500;10.176;2023-04-03T04:13:11;4.07;;;2.30;;
7029;SDS011;3556;53.500;10.176;2023-04-03T04:15:37;2.23;;;2.10;;
7029;SDS011;3556;53.500;10.176;2023-04-03T04:18:02;3.50;;;2.03;;
7029;SDS011;3556;53.500;10.176;2023-04-03T04:20:28;4.03;;;1.63;;
7029;SDS011;3556;53.500;10.176;2023-04-03T04:22:54;2.57;;;2.37;;
7029;SDS011;3556;53.500;10.176;2023-04-03T04:25:19;5.70;;;2.40;;
7029;SDS011;3556;53.500;10.176;2023-04-03T04:27:45;5.17;;;2.80;;
7029;SDS011;3556;53.500;10.176;2023-04-03T04:30:11;3.13;;;2.30;;
7029;SDS011;3556;53.500;10.176;2023-04-03T04:32:37;4.50;;;2.40;;
7029;SDS011;3556;53.500;10.176;2023-04-03T04:35:03;3.87;;;2.43;;
7029;SDS011;3556;53.500;10.176;2023-04-03T04:37:29;5.00;;;2.40;;
7029;SDS011;3556;53.500;10.176;2023-04-03T04:39:55;3.27;;;2.60;;
7029;SDS011;3556;53.500;10.176;2023-04-03T04:42:21;3.63;;;2.50;;
7029;SDS011;3556;53.500;10.176;2023-04-03T04:44:46;6.63;;;2.90;;
7029;SDS011;3556;53.500;10.176;2023-04-03T04:47:12;5.43;;;3.10;;
7029;SDS011;3556;53.500;10.176;2023-04-03T04:49:37;3.73;;;2.43;;
7029;SDS011;3556;53.500;10.176;2023-04-03T04:52:03;5.00;;;2.70;;
7029;SDS011;3556;53.500;10.176;2023-04-03T04:54:29;5.63;;;3.00;;
7029;SDS011;3556;53.500;10.176;2023-04-03T04:56:54;4.27;;;3.03;;
7029;SDS011;3556;53.500;10.176;2023-04-03T04:59:20;9.93;;;4.03;;
7029;SDS011;3556;53.500;10.176;2023-04-03T05:01:46;13.40;;;3.30;;
7029;SDS011;3556;53.500;10.176;2023-04-03T05:04:11;9.70;;;3.60;;
7029;SDS011;3556;53.500;10.176;2023-04-03T05:06:37;5.70;;;3.50;;
7029;SDS011;3556;53.500;10.176;2023-04-03T05:09:03;4.00;;;3.70;;
7029;SDS011;3556;53.500;10.176;2023-04-03T05:11:29;10.57;;;4.77;;
7029;SDS011;3556;53.500;10.176;2023-04-03T05:13:55;5.90;;;4.63;;
7029;SDS011;3556;53.500;10.176;2023-04-03T05:16:20;4.93;;;4.50;;
7029;SDS011;3556;53.500;10.176;2023-04-03T05:18:46;16.17;;;4.77;;
7029;SDS011;3556;53.500;10.176;2023-04-03T05:21:12;14.00;;;5.40;;
7029;SDS011;3556;53.500;10.176;2023-04-03T05:23:37;12.00;;;5.20;;
7029;SDS011;3556;53.500;10.176;2023-04-03T05:26:03;15.90;;;5.57;;
7029;SDS011;3556;53.500;10.176;2023-04-03T05:28:29;12.17;;;5.17;;
7029;SDS011;3556;53.500;10.176;2023-04-03T05:30:58;9.30;;;5.47;;
7029;SDS011;3556;53.500;10.176;2023-04-03T05:33:24;6.23;;;5.17;;
7029;SDS011;3556;53.500;10.176;2023-04-03T05:35:51;10.13;;;4.83;;
7029;SDS011;3556;53.500;10.176;2023-04-03T05:38:17;6.87;;;5.87;;
7029;SDS011;3556;53.500;10.176;2023-04-03T05:40:43;15.07;;;6.60;;
7029;SDS011;3556;53.500;10.176;2023-04-03T05:43:09;18.87;;;7.53;;
7029;SDS011;3556;53.500;10.176;2023-04-03T05:45:35;17.47;;;6.40;;
7029;SDS011;3556;53.500;10.176;2023-04-03T05:48:00;6.50;;;5.70;;
7029;SDS011;3556;53.500;10.176;2023-04-03T05:50:27;12.37;;;6.13;;
7029;SDS011;3556;53.500;10.176;2023-04-03T05:52:53;6.33;;;5.73;;
7029;SDS011;3556;53.500;10.176;2023-04-03T05:55:23;15.27;;;6.23;;
7029;SDS011;3556;53.500;10.176;2023-04-03T05:57:48;10.23;;;6.27;;
7029;SDS011;3556;53.500;10.176;2023-04-03T06:00:15;12.77;;;6.10;;
7029;SDS011;3556;53.500;10.176;2023-04-03T06:02:41;7.27;;;5.20;;
7029;SDS011;3556;53.500;10.176;2023-04-03T06:05:07;10.10;;;5.50;;
7029;SDS011;3556;53.500;10.176;2023-04-03T06:07:34;6.30;;;5.43;;
7029;SDS011;3556;53.500;10.176;2023-04-03T06:10:00;7.73;;;5.20;;
7029;SDS011;3556;53.500;10.176;2023-04-03T06:12:26;6.00;;;4.83;;
7029;SDS011;3556;53.500;10.176;2023-04-03T06:14:54;9.40;;;4.87;;
7029;SDS011;3556;53.500;10.176;2023-04-03T06:17:20;7.57;;;4.70;;
7029;SDS011;3556;53.500;10.176;2023-04-03T06:19:46;5.97;;;4.50;;
7029;SDS011;3556;53.500;10.176;2023-04-03T06:22:12;4.87;;;3.90;;
7029;SDS011;3556;53.500;10.176;2023-04-03T06:24:38;5.77;;;4.17;;
7029;SDS011;3556;53.500;10.176;2023-04-03T06:27:03;5.00;;;4.50;;
7029;SDS011;3556;53.500;10.176;2023-04-03T06:29:29;4.37;;;3.63;;
7029;SDS011;3556;53.500;10.176;2023-04-03T06:31:55;5.00;;;4.00;;
7029;SDS011;3556;53.500;10.176;2023-04-03T06:34:20;8.80;;;3.20;;
7029;SDS011;3556;53.500;10.176;2023-04-03T06:36:47;5.90;;;3.40;;
7029;SDS011;3556;53.500;10.176;2023-04-03T06:39:17;4.90;;;3.57;;
7029;SDS011;3556;53.500;10.176;2023-04-03T06:41:48;4.90;;;3.50;;
7029;SDS011;3556;53.500;10.176;2023-04-03T06:44:15;8.73;;;3.37;;
7029;SDS011;3556;53.500;10.176;2023-04-03T06:46:41;3.70;;;3.20;;
7029;SDS011;3556;53.500;10.176;2023-04-03T06:49:08;5.17;;;3.43;;
7029;SDS011;3556;53.500;10.176;2023-04-03T06:51:35;7.43;;;3.03;;
7029;SDS011;3556;53.500;10.176;2023-04-03T06:54:01;4.70;;;3.17;;
7029;SDS011;3556;53.500;10.176;2023-04-03T06:56:27;5.73;;;2.80;;
7029;SDS011;3556;53.500;10.176;2023-04-03T06:58:54;4.40;;;3.60;;
7029;SDS011;3556;53.500;10.176;2023-04-03T07:01:22;3.77;;;3.00;;
7029;SDS011;3556;53.500;10.176;2023-04-03T07:03:51;2.30;;;2.10;;
7029;SDS011;3556;53.500;10.176;2023-04-03T07:06:17;3.67;;;2.40;;
7029;SDS011;3556;53.500;10.176;2023-04-03T07:08:43;6.37;;;2.23;;
7029;SDS011;3556;53.500;10.176;2023-04-03T07:11:10;8.33;;;2.37;;
7029;SDS011;3556;53.500;10.176;2023-04-03T07:13:36;5.63;;;1.90;;
7029;SDS011;3556;53.500;10.176;2023-04-03T07:16:02;2.07;;;1.97;;
7029;SDS011;3556;53.500;10.176;2023-04-03T07:18:30;2.70;;;2.50;;
7029;SDS011;3556;53.500;10.176;2023-04-03T07:20:56;2.43;;;2.00;;
7029;SDS011;3556;53.500;10.176;2023-04-03T07:23:22;4.30;;;2.33;;
7029;SDS011;3556;53.500;10.176;2023-04-03T07:25:48;3.57;;;1.73;;
7029;SDS011;3556;53.500;10.176;2023-04-03T07:28:16;2.57;;;1.73;;
7029;SDS011;3556;53.500;10.176;2023-04-03T07:30:46;2.40;;;1.33;;
7029;SDS011;3556;53.500;10.176;2023-04-03T07:33:14;3.60;;;1.67;;
7029;SDS011;3556;53.500;10.176;2023-04-03T07:35:41;3.33;;;1.10;;
7029;SDS011;3556;53.500;10.176;2023-04-03T07:38:07;1.53;;;1.43;;
7029;SDS011;3556;53.500;10.176;2023-04-03T07:40:33;3.20;;;1.40;;
7029;SDS011;3556;53.500;10.176;2023-04-03T07:43:00;2.20;;;1.43;;
7029;SDS011;3556;53.500;10.176;2023-04-03T07:45:25;2.40;;;1.47;;
7029;SDS011;3556;53.500;10.176;2023-04-03T07:47:51;6.10;;;1.57;;
7029;SDS011;3556;53.500;10.176;2023-04-03T07:50:18;1.40;;;1.30;;
7029;SDS011;3556;53.500;10.176;2023-04-03T07:52:43;2.63;;;1.40;;
7029;SDS011;3556;53.500;10.176;2023-04-03T07:55:10;3.23;;;1.17;;
7029;SDS011;3556;53.500;10.176;2023-04-03T07:57:36;2.13;;;1.20;;
7029;SDS011;3556;53.500;10.176;2023-04-03T08:00:03;8.00;;;1.10;;
7029;SDS011;3556;53.500;10.176;2023-04-03T08:02:29;4.57;;;0.90;;
7029;SDS011;3556;53.500;10.176;2023-04-03T08:04:57;2.60;;;1.20;;
7029;SDS011;3556;53.500;10.176;2023-04-03T08:07:23;1.23;;;0.90;;
7029;SDS011;3556;53.500;10.176;2023-04-03T08:09:48;4.13;;;1.00;;
7029;SDS011;3556;53.500;10.176;2023-04-03T08:12:14;1.90;;;1.00;;
7029;SDS011;3556;53.500;10.176;2023-04-03T08:14:40;1.93;;;1.17;;
7029;SDS011;3556;53.500;10.176;2023-04-03T08:17:06;1.77;;;1.23;;
7029;SDS011;3556;53.500;10.176;2023-04-03T08:19:34;3.53;;;1.33;;
7029;SDS011;3556;53.500;10.176;2023-04-03T08:22:00;2.03;;;1.20;;
7029;SDS011;3556;53.500;10.176;2023-04-03T08:24:28;2.40;;;1.00;;
7029;SDS011;3556;53.500;10.176;2023-04-03T08:26:54;2.03;;;1.00;;
7029;SDS011;3556;53.500;10.176;2023-04-03T08:29:20;4.93;;;1.00;;
7029;SDS011;3556;53.500;10.176;2023-04-03T08:31:46;1.33;;;0.90;;
7029;SDS011;3556;53.500;10.176;2023-04-03T08:34:12;2.90;;;1.00;;
7029;SDS011;3556;53.500;10.176;2023-04-03T08:36:39;1.53;;;0.93;;
7029;SDS011;3556;53.500;10.176;2023-04-03T08:39:05;2.50;;;1.00;;
7029;SDS011;3556;53.500;10.176;2023-04-03T08:41:35;2.53;;;1.20;;
7029;SDS011;3556;53.500;10.176;2023-04-03T08:49:39;0.90;;;0.80;;
7029;SDS011;3556;53.500;10.176;2023-04-03T08:52:13;1.40;;;0.90;;
7029;SDS011;3556;53.500;10.176;2023-04-03T08:54:56;0.80;;;0.80;;
7029;SDS011;3556;53.500;10.176;2023-04-03T08:57:33;1.73;;;0.90;;
7029;SDS011;3556;53.500;10.176;2023-04-03T09:00:06;1.10;;;0.90;;
7029;SDS011;3556;53.500;10.176;2023-04-03T09:02:41;1.00;;;0.90;;
7029;SDS011;3556;53.500;10.176;2023-04-03T09:05:20;2.30;;;1.00;;
7029;SDS011;3556;53.500;10.176;2023-04-03T09:08:23;1.87;;;1.10;;
7029;SDS011;3556;53.500;10.176;2023-04-03T09:16:47;0.70;;;0.70;;
7029;SDS011;3556;53.500;10.176;2023-04-03T09:22:00;1.10;;;1.00;;
7029;SDS011;3556;53.500;10.176;2023-04-03T09:24:36;1.07;;;0.90;;
7029;SDS011;3556;53.500;10.176;2023-04-03T09:27:06;1.57;;;1.00;;
7029;SDS011;3556;53.500;10.176;2023-04-03T09:29:37;0.80;;;0.67;;
7029;SDS011;3556;53.500;10.176;2023-04-03T09:32:49;1.00;;;1.00;;
7029;SDS011;3556;53.500;10.176;2023-04-03T09:35:03;1.03;;;0.90;;
7029;SDS011;3556;53.500;10.176;2023-04-03T09:37:39;0.73;;;0.73;;
7029;SDS011;3556;53.500;10.176;2023-04-03T09:45:43;0.80;;;0.70;;
7029;SDS011;3556;53.500;10.176;2023-04-03T09:50:52;0.80;;;0.80;;
7029;SDS011;3556;53.500;10.176;2023-04-03T09:53:31;1.03;;;0.70;;
7029;SDS011;3556;53.500;10.176;2023-04-03T09:56:00;1.67;;;1.00;;
7029;SDS011;3556;53.500;10.176;2023-04-03T09:58:38;1.60;;;1.10;;
7029;SDS011;3556;53.500;10.176;2023-04-03T10:01:06;0.80;;;0.80;;
7029;SDS011;3556;53.500;10.176;2023-04-03T10:03:46;1.07;;;0.60;;
7029;SDS011;3556;53.500;10.176;2023-04-03T10:06:47;1.00;;;1.00;;
7029;SDS011;3556;53.500;10.176;2023-04-03T10:11:57;1.20;;;1.10;;
7029;SDS011;3556;53.500;10.176;2023-04-03T10:14:29;2.03;;;0.90;;
7029;SDS011;3556;53.500;10.176;2023-04-03T10:35:37;1.73;;;1.07;;
7029;SDS011;3556;53.500;10.176;2023-04-03T10:38:36;1.10;;;1.00;;
7029;SDS011;3556;53.500;10.176;2023-04-03T10:41:14;1.50;;;1.13;;
7029;SDS011;3556;53.500;10.176;2023-04-03T10:46:44;1.53;;;1.00;;
7029;SDS011;3556;53.500;10.176;2023-04-03T10:49:18;1.10;;;0.87;;
7029;SDS011;3556;53.500;10.176;2023-04-03T10:52:18;1.10;;;1.10;;
7029;SDS011;3556;53.500;10.176;2023-04-03T10:54:58;2.73;;;1.10;;
7029;SDS011;3556;53.500;10.176;2023-04-03T10:57:26;2.17;;;0.80;;
7029;SDS011;3556;53.500;10.176;2023-04-03T10:59:57;1.47;;;1.10;;
7029;SDS011;3556;53.500;10.176;2023-04-03T11:08:12;1.30;;;0.90;;
7029;SDS011;3556;53.500;10.176;2023-04-03T11:10:51;3.37;;;1.00;;
7029;SDS011;3556;53.500;10.176;2023-04-03T11:13:40;1.20;;;1.10;;
7029;SDS011;3556;53.500;10.176;2023-04-03T11:16:24;1.70;;;1.00;;
7029;SDS011;3556;53.500;10.176;2023-04-03T11:21:40;1.93;;;1.10;;
7029;SDS011;3556;53.500;10.176;2023-04-03T11:24:15;1.00;;;1.00;;
7029;SDS011;3556;53.500;10.176;2023-04-03T11:26:45;1.13;;;0.80;;
7029;SDS011;3556;53.500;10.176;2023-04-03T11:29:13;1.40;;;0.90;;
7029;SDS011;3556;53.500;10.176;2023-04-03T11:34:18;1.70;;;0.97;;
7029;SDS011;3556;53.500;10.176;2023-04-03T11:36:59;0.90;;;0.90;;
7029;SDS011;3556;53.500;10.176;2023-04-03T11:42:15;2.60;;;0.97;;
7029;SDS011;3556;53.500;10.176;2023-04-03T11:44:48;1.13;;;1.00;;
7029;SDS011;3556;53.500;10.176;2023-04-03T11:47:43;2.70;;;1.00;;
7029;SDS011;3556;53.500;10.176;2023-04-03T11:50:30;0.80;;;0.80;;
7029;SDS011;3556;53.500;10.176;2023-04-03T12:04:12;0.97;;;0.97;;
7029;SDS011;3556;53.500;10.176;2023-04-03T12:16:42;1.17;;;0.73;;
7029;SDS011;3556;53.500;10.176;2023-04-03T12:22:09;0.87;;;0.87;;
7029;SDS011;3556;53.500;10.176;2023-04-03T12:24:41;1.30;;;0.90;;
7029;SDS011;3556;53.500;10.176;2023-04-03T12:30:04;2.70;;;1.10;;
7029;SDS011;3556;53.500;10.176;2023-04-03T12:35:29;0.80;;;0.80;;
7029;SDS011;3556;53.500;10.176;2023-04-03T12:46:23;1.10;;;1.00;;
7029;SDS011;3556;53.500;10.176;2023-04-03T12:48:52;5.87;;;1.37;;
7029;SDS011;3556;53.500;10.176;2023-04-03T12:53:52;1.40;;;0.90;;
7029;SDS011;3556;53.500;10.176;2023-04-03T12:58:49;1.27;;;1.00;;
7029;SDS011;3556;53.500;10.176;2023-04-03T13:01:24;1.20;;;1.10;;
7029;SDS011;3556;53.500;10.176;2023-04-03T13:03:55;4.87;;;1.00;;
7029;SDS011;3556;53.500;10.176;2023-04-03T13:06:27;0.90;;;0.80;;
7029;SDS011;3556;53.500;10.176;2023-04-03T13:08:57;3.27;;;1.20;;
7029;SDS011;3556;53.500;10.176;2023-04-03T13:11:25;0.87;;;0.87;;
7029;SDS011;3556;53.500;10.176;2023-04-03T13:13:58;0.87;;;0.87;;
7029;SDS011;3556;53.500;10.176;2023-04-03T13:16:25;1.63;;;1.00;;
7029;SDS011;3556;53.500;10.176;2023-04-03T13:18:52;3.23;;;1.10;;
7029;SDS011;3556;53.500;10.176;2023-04-03T13:21:23;1.60;;;1.23;;
7029;SDS011;3556;53.500;10.176;2023-04-03T13:23:58;1.57;;;0.93;;
7029;SDS011;3556;53.500;10.176;2023-04-03T13:26:27;1.37;;;0.90;;
7029;SDS011;3556;53.500;10.176;2023-04-03T13:28:56;1.27;;;1.07;;
7029;SDS011;3556;53.500;10.176;2023-04-03T13:31:35;1.83;;;0.87;;
7029;SDS011;3556;53.500;10.176;2023-04-03T13:34:12;1.10;;;0.83;;
7029;SDS011;3556;53.500;10.176;2023-04-03T13:41:44;0.97;;;0.97;;
7029;SDS011;3556;53.500;10.176;2023-04-03T13:46:46;4.83;;;1.00;;
7029;SDS011;3556;53.500;10.176;2023-04-03T13:51:54;1.80;;;0.83;;
7029;SDS011;3556;53.500;10.176;2023-04-03T13:54:32;0.90;;;0.90;;
7029;SDS011;3556;53.500;10.176;2023-04-03T13:57:03;1.00;;;0.73;;
7029;SDS011;3556;53.500;10.176;2023-04-03T13:59:38;0.97;;;0.87;;
7029;SDS011;3556;53.500;10.176;2023-04-03T14:04:31;0.93;;;0.93;;
7029;SDS011;3556;53.500;10.176;2023-04-03T14:07:12;1.27;;;1.00;;
7029;SDS011;3556;53.500;10.176;2023-04-03T14:09:41;5.33;;;1.17;;
7029;SDS011;3556;53.500;10.176;2023-04-03T14:12:08;1.83;;;0.93;;
7029;SDS011;3556;53.500;10.176;2023-04-03T14:14:42;0.73;;;0.70;;
7029;SDS011;3556;53.500;10.176;2023-04-03T14:17:16;1.13;;;1.13;;
7029;SDS011;3556;53.500;10.176;2023-04-03T14:19:44;1.00;;;0.90;;
7029;SDS011;3556;53.500;10.176;2023-04-03T14:22:16;1.00;;;0.80;;
7029;SDS011;3556;53.500;10.176;2023-04-03T14:24:48;1.00;;;0.77;;
7029;SDS011;3556;53.500;10.176;2023-04-03T14:29:47;1.30;;;0.90;;
7029;SDS011;3556;53.500;10.176;2023-04-03T14:32:14;0.73;;;0.73;;
7029;SDS011;3556;53.500;10.176;2023-04-03T14:34:41;0.90;;;0.83;;
7029;SDS011;3556;53.500;10.176;2023-04-03T14:37:13;2.80;;;1.30;;
7029;SDS011;3556;53.500;10.176;2023-04-03T14:39:41;1.93;;;1.13;;
7029;SDS011;3556;53.500;10.176;2023-04-03T14:42:15;1.07;;;0.83;;
7029;SDS011;3556;53.500;10.176;2023-04-03T14:44:43;3.53;;;0.70;;
7029;SDS011;3556;53.500;10.176;2023-04-03T14:47:12;0.87;;;0.87;;
7029;SDS011;3556;53.500;10.176;2023-04-03T14:49:40;0.90;;;0.90;;
7029;SDS011;3556;53.500;10.176;2023-04-03T14:52:09;0.80;;;0.70;;
7029;SDS011;3556;53.500;10.176;2023-04-03T14:54:49;1.00;;;0.90;;
7029;SDS011;3556;53.500;10.176;2023-04-03T14:57:16;2.80;;;0.87;;
7029;SDS011;3556;53.500;10.176;2023-04-03T14:59:42;1.30;;;1.20;;
7029;SDS011;3556;53.500;10.176;2023-04-03T15:02:29;1.17;;;1.07;;
7029;SDS011;3556;53.500;10.176;2023-04-03T15:04:59;1.20;;;1.10;;
7029;SDS011;3556;53.500;10.176;2023-04-03T15:07:29;3.30;;;1.80;;
7029;SDS011;3556;53.500;10.176;2023-04-03T15:09:57;2.00;;;1.00;;
7029;SDS011;3556;53.500;10.176;2023-04-03T15:12:26;0.90;;;0.90;;
7029;SDS011;3556;53.500;10.176;2023-04-03T15:14:52;8.70;;;1.13;;
7029;SDS011;3556;53.500;10.176;2023-04-03T15:17:18;0.90;;;0.90;;
7029;SDS011;3556;53.500;10.176;2023-04-03T15:19:46;1.47;;;1.23;;
7029;SDS011;3556;53.500;10.176;2023-04-03T15:22:18;0.87;;;0.87;;
7029;SDS011;3556;53.500;10.176;2023-04-03T15:24:45;1.10;;;1.00;;
7029;SDS011;3556;53.500;10.176;2023-04-03T15:27:11;1.00;;;1.00;;
7029;SDS011;3556;53.500;10.176;2023-04-03T15:29:38;1.33;;;1.23;;
7029;SDS011;3556;53.500;10.176;2023-04-03T15:32:04;2.40;;;1.00;;
7029;SDS011;3556;53.500;10.176;2023-04-03T15:34:31;1.00;;;1.00;;
7029;SDS011;3556;53.500;10.176;2023-04-03T15:36:57;1.53;;;0.97;;
7029;SDS011;3556;53.500;10.176;2023-04-03T15:39:24;1.33;;;1.20;;
7029;SDS011;3556;53.500;10.176;2023-04-03T15:41:50;1.20;;;1.20;;
7029;SDS011;3556;53.500;10.176;2023-04-03T15:44:16;1.07;;;0.97;;
7029;SDS011;3556;53.500;10.176;2023-04-03T15:46:43;1.50;;;1.40;;
7029;SDS011;3556;53.500;10.176;2023-04-03T15:49:12;1.17;;;1.17;;
7029;SDS011;3556;53.500;10.176;2023-04-03T15:51:38;1.83;;;1.10;;
7029;SDS011;3556;53.500;10.176;2023-04-03T15:54:04;1.83;;;1.27;;
7029;SDS011;3556;53.500;10.176;2023-04-03T15:56:29;1.67;;;1.20;;
7029;SDS011;3556;53.500;10.176;2023-04-03T15:58:55;1.67;;;1.20;;
7029;SDS011;3556;53.500;10.176;2023-04-03T16:01:21;1.30;;;1.20;;
7029;SDS011;3556;53.500;10.176;2023-04-03T16:03:46;1.67;;;1.00;;
7029;SDS011;3556;53.500;10.176;2023-04-03T16:06:13;1.47;;;1.27;;
7029;SDS011;3556;53.500;10.176;2023-04-03T16:08:40;1.17;;;1.07;;
7029;SDS011;3556;53.500;10.176;2023-04-03T16:11:06;1.90;;;1.07;;
7029;SDS011;3556;53.500;10.176;2023-04-03T16:13:32;1.27;;;1.17;;
7029;SDS011;3556;53.500;10.176;2023-04-03T16:15:58;1.37;;;1.27;;
7029;SDS011;3556;53.500;10.176;2023-04-03T16:18:25;1.60;;;0.90;;
7029;SDS011;3556;53.500;10.176;2023-04-03T16:20:51;1.83;;;1.00;;
7029;SDS011;3556;53.500;10.176;2023-04-03T16:23:17;2.00;;;1.00;;
7029;SDS011;3556;53.500;10.176;2023-04-03T16:25:43;2.80;;;1.40;;
7029;SDS011;3556;53.500;10.176;2023-04-03T16:28:11;2.00;;;1.30;;
7029;SDS011;3556;53.500;10.176;2023-04-03T16:30:38;1.53;;;0.97;;
7029;SDS011;3556;53.500;10.176;2023-04-03T16:33:08;1.63;;;1.10;;
7029;SDS011;3556;53.500;10.176;2023-04-03T16:35:35;1.70;;;1.60;;
7029;SDS011;3556;53.500;10.176;2023-04-03T16:38:01;2.53;;;1.37;;
7029;SDS011;3556;53.500;10.176;2023-04-03T16:40:27;2.33;;;1.73;;
7029;SDS011;3556;53.500;10.176;2023-04-03T16:42:52;1.27;;;1.20;;
7029;SDS011;3556;53.500;10.176;2023-04-03T16:45:18;5.23;;;1.30;;
7029;SDS011;3556;53.500;10.176;2023-04-03T16:47:44;1.40;;;1.30;;
7029;SDS011;3556;53.500;10.176;2023-04-03T16:50:09;2.50;;;1.20;;
7029;SDS011;3556;53.500;10.176;2023-04-03T16:52:35;1.50;;;1.40;;
7029;SDS011;3556;53.500;10.176;2023-04-03T16:55:01;1.33;;;1.10;;
7029;SDS011;3556;53.500;10.176;2023-04-03T16:57:27;1.27;;;1.17;;
7029;SDS011;3556;53.500;10.176;2023-04-03T16:59:53;2.37;;;1.20;;
7029;SDS011;3556;53.500;10.176;2023-04-03T17:02:20;1.93;;;1.30;;
7029;SDS011;3556;53.500;10.176;2023-04-03T17:04:46;2.23;;;1.30;;
7029;SDS011;3556;53.500;10.176;2023-04-03T17:07:12;1.70;;;1.50;;
7029;SDS011;3556;53.500;10.176;2023-04-03T17:09:37;1.67;;;1.53;;
7029;SDS011;3556;53.500;10.176;2023-04-03T17:12:03;3.00;;;1.30;;
7029;SDS011;3556;53.500;10.176;2023-04-03T17:14:29;1.73;;;1.37;;
7029;SDS011;3556;53.500;10.176;2023-04-03T17:16:55;3.87;;;1.57;;